Time;durP1;ratioP1;P1;durP2;ratioP2;P2;SDS_P1;SDS_P2;PMS_P1;PMS_P2;Temp;Humidity;BMP_temperature;BMP_pressure;BME280_temperature;BME280_humidity;BME280_pressure;Samples;Min_cycle;Max_cycle;Signal;HPM_P1;HPM_P2
2023/11/26 00:00:48;;;;;;;;;;;;;;;9.53;69.49;101110.09;7361510;19;19951;-61
2023/11/26 00:03:14;;;;;;;;;;;;;;;9.54;69.67;101103.97;7351772;19;19922;-61
2023/11/26 00:05:39;;;;;;;;;;;;;;;9.57;69.77;101092.63;7369203;19;19986;-61
2023/11/26 00:08:05;;;;;;;;;;;;;;;9.59;69.40;101099.56;7367263;19;19918;-61
2023/11/26 00:10:30;;;;;;;;;;;;;;;9.62;69.57;101106.47;7366430;19;19919;-61
2023/11/26 00:12:55;;;;;;;;;;;;;;;9.65;69.39;101097.78;7359051;19;19931;-60
2023/11/26 00:15:21;;;;;;;;;;;;;;;9.67;69.47;101098.59;7359426;19;19919;-61
2023/11/26 00:17:46;;;;;;;;;;;;;;;9.68;69.37;101095.09;7357709;19;20872;-61
2023/11/26 00:20:11;;;;;;;;;;;;;;;9.70;69.29;101093.34;7355873;19;20499;-61
2023/11/26 00:22:37;;;;;;;;;;;;;;;9.72;69.32;101096.78;7359798;19;20755;-60
2023/11/26 00:25:02;;;;;;;;;;;;;;;9.75;69.66;101091.56;7356533;19;20007;-61
2023/11/26 00:27:27;;;;;;;;;;;;;;;9.76;69.20;101090.66;7364745;19;19919;-61
2023/11/26 00:29:53;;;;;;;;;;;;;;;9.78;69.09;101083.66;7366976;19;20343;-61
2023/11/26 00:32:18;;;;;;;;;;;;;;;9.79;69.18;101090.63;7356144;19;19923;-61
2023/11/26 00:34:43;;;;;;;;;;;;;;;9.79;69.17;101083.66;7347382;19;19918;-60
2023/11/26 00:37:08;;;;;;;;;;;;;;;9.82;69.09;101093.19;7360412;19;19925;-61
2023/11/26 00:39:34;;;;;;;;;;;;;;;9.84;69.39;101087.09;7347512;19;19922;-61
2023/11/26 00:41:59;;;;;;;;;;;;;;;9.85;69.21;101093.16;7357508;19;19957;-61
2023/11/26 00:44:25;;;;;;;;;;;;;;;9.86;68.96;101089.66;7353980;19;19926;-61
2023/11/26 00:46:53;;;;;;;;;;;;;;;9.87;69.10;101091.38;7360820;19;19940;-61
2023/11/26 00:49:19;;;;;;;;;;;;;;;9.88;68.92;101080.06;7335867;19;20338;-60
2023/11/26 00:51:44;;;;;;;;;;;;;;;9.88;69.06;101072.22;7359685;19;19918;-61
2023/11/26 00:54:09;;;;;;;;;;;;;;;9.90;69.30;101080.06;7354499;19;19918;-60
2023/11/26 00:56:35;;;;;;;;;;;;;;;9.91;68.90;101071.34;7362871;19;20687;-60
2023/11/26 00:59:00;;;;;;;;;;;;;;;9.92;68.92;101068.69;7353526;19;19954;-61
2023/11/26 01:01:25;;;;;;;;;;;;;;;9.77;69.19;101032.41;7357454;19;19930;-60
2023/11/26 01:03:50;;;;;;;;;;;;;;;9.92;69.14;101063.47;7357617;19;19918;-61
2023/11/26 01:06:16;;;;;;;;;;;;;;;9.92;69.30;101058.25;7358235;19;19936;-60
2023/11/26 01:08:41;;;;;;;;;;;;;;;9.92;69.30;101053.03;7358410;19;19923;-60
2023/11/26 01:11:12;;;;;;;;;;;;;;;9.93;68.87;101049.56;7360272;19;20726;-61
2023/11/26 01:13:38;;;;;;;;;;;;;;;9.92;69.26;101050.44;7356122;19;19919;-60
2023/11/26 01:16:03;;;;;;;;;;;;;;;9.93;69.02;101039.13;7354830;19;20019;-60
2023/11/26 01:18:29;;;;;;;;;;;;;;;9.94;69.03;101045.22;7358840;19;19918;-60
2023/11/26 01:20:54;;;;;;;;;;;;;;;9.94;68.88;101038.25;7355722;19;19919;-61
2023/11/26 01:23:20;;;;;;;;;;;;;;;9.93;69.29;101039.13;7354136;19;19913;-61
2023/11/26 01:25:45;;;;;;;;;;;;;;;9.92;68.78;101032.19;7356814;19;19927;-61
2023/11/26 01:28:10;;;;;;;;;;;;;;;9.93;69.14;101036.50;7356716;19;20335;-61
2023/11/26 01:30:35;;;;;;;;;;;;;;;9.93;69.22;101038.25;7353838;19;19915;-61
2023/11/26 01:33:01;;;;;;;;;;;;;;;9.93;68.92;101033.91;7359461;19;19975;-60
2023/11/26 01:35:26;;;;;;;;;;;;;;;9.93;69.17;101036.50;7360464;19;19914;-61
2023/11/26 01:37:51;;;;;;;;;;;;;;;9.93;68.87;101039.13;7359031;19;19930;-61
2023/11/26 01:40:17;;;;;;;;;;;;;;;9.92;68.79;101032.19;7363145;19;19919;-61
2023/11/26 01:42:44;;;;;;;;;;;;;;;9.92;68.84;101032.19;7359773;19;19950;-61
2023/11/26 01:45:09;;;;;;;;;;;;;;;9.92;68.97;101029.56;7364232;19;19927;-60
2023/11/26 01:47:35;;;;;;;;;;;;;;;9.92;68.85;101026.97;7368491;19;19951;-61
2023/11/26 01:50:00;;;;;;;;;;;;;;;9.93;68.82;101027.81;7362589;19;19990;-60
2023/11/26 01:52:26;;;;;;;;;;;;;;;9.93;68.90;101026.06;7367091;19;19915;-61
2023/11/26 01:54:51;;;;;;;;;;;;;;;9.93;68.87;101017.38;7356949;19;19952;-61
2023/11/26 01:57:17;;;;;;;;;;;;;;;9.92;68.87;101015.66;7364687;19;20327;-61
2023/11/26 01:59:43;;;;;;;;;;;;;;;9.91;68.86;101019.16;7365751;19;20463;-60
2023/11/26 02:02:08;;;;;;;;;;;;;;;9.91;68.89;101022.63;7363297;19;20561;-61
2023/11/26 02:04:33;;;;;;;;;;;;;;;9.88;68.96;101010.50;7363428;19;19919;-61
2023/11/26 02:06:59;;;;;;;;;;;;;;;9.87;69.06;101013.13;7365814;19;19919;-61
2023/11/26 02:09:24;;;;;;;;;;;;;;;9.86;69.05;101006.19;7370415;19;19929;-60
2023/11/26 02:11:50;;;;;;;;;;;;;;;9.83;68.89;101006.22;7360458;19;20309;-60
2023/11/26 02:14:18;;;;;;;;;;;;;;;9.80;69.08;100998.47;7362901;19;19919;-60
2023/11/26 02:16:46;;;;;;;;;;;;;;;9.77;69.09;100993.28;7369853;19;19999;-61
2023/11/26 02:19:32;;;;;;;;;;;;;;;9.76;69.04;100988.94;7365657;19;20403;-61
2023/11/26 02:21:57;;;;;;;;;;;;;;;9.74;69.09;100990.72;7373899;19;19986;-60
2023/11/26 02:24:28;;;;;;;;;;;;;;;9.72;69.35;100987.28;7375686;19;19990;-60
2023/11/26 02:26:54;;;;;;;;;;;;;;;9.71;69.35;100985.56;7369403;19;19923;-61
2023/11/26 02:29:19;;;;;;;;;;;;;;;9.70;69.09;100978.63;7366245;19;19926;-61
2023/11/26 02:31:44;;;;;;;;;;;;;;;9.68;69.28;100976.03;7371545;19;19914;-60
2023/11/26 02:34:09;;;;;;;;;;;;;;;9.67;69.15;100973.44;7361164;19;19919;-61
2023/11/26 02:36:35;;;;;;;;;;;;;;;9.67;69.53;100963.00;7359637;19;20358;-61
2023/11/26 02:39:00;;;;;;;;;;;;;;;9.66;69.25;100964.75;7363848;19;19925;-61
2023/11/26 02:41:25;;;;;;;;;;;;;;;9.64;69.25;100957.84;7365170;19;19953;-61
2023/11/26 02:43:53;;;;;;;;;;;;;;;9.63;69.22;100954.38;7364998;19;19923;-61
2023/11/26 02:46:19;;;;;;;;;;;;;;;9.62;69.27;100948.28;7369230;19;19910;-61
2023/11/26 02:48:44;;;;;;;;;;;;;;;9.62;69.66;100940.47;7368755;19;20613;-61
2023/11/26 02:51:09;;;;;;;;;;;;;;;9.62;69.72;100944.81;7368743;19;19923;-61
2023/11/26 02:53:34;;;;;;;;;;;;;;;9.62;69.39;100942.22;7362425;19;19922;-61
2023/11/26 02:56:00;;;;;;;;;;;;;;;9.61;69.67;100938.75;7365423;19;19916;-61
2023/11/26 02:58:25;;;;;;;;;;;;;;;9.60;69.68;100934.41;7362997;19;19923;-61
2023/11/26 03:00:51;;;;;;;;;;;;;;;9.59;69.28;100924.03;7368362;19;20346;-61
2023/11/26 03:03:19;;;;;;;;;;;;;;;9.57;69.46;100926.63;7366819;19;19927;-61
2023/11/26 03:05:49;;;;;;;;;;;;;;;9.56;69.64;100922.31;7358904;19;19926;-60
2023/11/26 03:08:21;;;;;;;;;;;;;;;9.54;69.24;100918.88;7366128;19;19922;-61
2023/11/26 03:13:33;;;;;;;;;;;;;;;9.49;69.69;100917.22;7359373;19;19933;-60
2023/11/26 03:15:59;;;;;;;;;;;;;;;9.45;69.54;100916.41;7367391;19;20340;-60
2023/11/26 03:18:25;;;;;;;;;;;;;;;9.43;69.39;100907.75;7365424;19;19927;-61
2023/11/26 03:20:52;;;;;;;;;;;;;;;9.42;69.60;100900.78;7360850;19;20770;-61
2023/11/26 03:23:19;;;;;;;;;;;;;;;9.41;69.44;100903.44;7364683;19;19926;-61
2023/11/26 03:25:45;;;;;;;;;;;;;;;9.38;69.64;100899.13;7365141;19;19931;-61
2023/11/26 03:28:10;;;;;;;;;;;;;;;9.37;69.87;100900.00;7366555;19;20606;-60
2023/11/26 03:30:36;;;;;;;;;;;;;;;9.36;69.70;100895.69;7347406;19;19910;-61
2023/11/26 03:33:01;;;;;;;;;;;;;;;9.35;69.53;100891.34;7365142;19;19926;-61
2023/11/26 03:35:26;;;;;;;;;;;;;;;9.34;69.52;100894.84;7366627;19;19949;-61
2023/11/26 03:37:53;;;;;;;;;;;;;;;9.33;69.84;100885.31;7357207;19;19925;-61
2023/11/26 03:40:19;;;;;;;;;;;;;;;9.33;69.58;100885.31;7365137;19;19919;-60
2023/11/26 03:42:44;;;;;;;;;;;;;;;9.32;70.09;100883.56;7360684;19;19928;-61
2023/11/26 03:45:11;;;;;;;;;;;;;;;9.32;69.86;100878.34;7364781;19;19926;-61
2023/11/26 03:47:36;;;;;;;;;;;;;;;9.33;70.16;100874.88;7361013;19;19947;-60
2023/11/26 03:50:05;;;;;;;;;;;;;;;9.33;69.89;100874.88;7364410;19;20493;-60
2023/11/26 03:52:30;;;;;;;;;;;;;;;9.34;69.91;100868.78;7359425;19;20266;-60
2023/11/26 03:54:55;;;;;;;;;;;;;;;9.33;70.12;100865.31;7362333;19;20489;-60
2023/11/26 03:57:20;;;;;;;;;;;;;;;9.35;69.89;100870.50;7366828;19;19926;-60
2023/11/26 03:59:46;;;;;;;;;;;;;;;9.38;70.00;100872.19;7364667;19;19918;-61
2023/11/26 04:02:12;;;;;;;;;;;;;;;9.38;70.01;100864.38;7328393;19;20389;-60
2023/11/26 04:04:37;;;;;;;;;;;;;;;9.38;69.85;100857.44;7357763;19;19910;-61
2023/11/26 04:07:03;;;;;;;;;;;;;;;9.39;69.91;100858.28;7363666;19;20378;-60
2023/11/26 04:09:29;;;;;;;;;;;;;;;9.40;70.05;100860.00;7362311;19;20017;-60
2023/11/26 04:11:57;;;;;;;;;;;;;;;9.40;69.97;100854.81;7357081;19;19933;-61
2023/11/26 04:14:23;;;;;;;;;;;;;;;9.41;70.36;100849.56;7360574;19;19926;-61
2023/11/26 04:16:49;;;;;;;;;;;;;;;9.42;69.95;100838.25;7363628;19;19929;-61
2023/11/26 04:19:15;;;;;;;;;;;;;;;9.42;70.25;100838.25;7332664;19;19922;-61
2023/11/26 04:21:42;;;;;;;;;;;;;;;9.44;70.30;100833.88;7363492;19;19937;-61
2023/11/26 04:24:07;;;;;;;;;;;;;;;9.45;69.84;100837.34;7359282;19;19929;-60
2023/11/26 04:26:33;;;;;;;;;;;;;;;9.46;70.32;100839.06;7353913;19;19919;-60
2023/11/26 04:28:58;;;;;;;;;;;;;;;9.47;70.14;100836.41;7362554;19;19998;-61
2023/11/26 04:31:23;;;;;;;;;;;;;;;9.48;70.13;100826.84;7362744;19;19953;-61
2023/11/26 04:33:48;;;;;;;;;;;;;;;9.49;70.11;100829.44;7361757;19;19953;-61
2023/11/26 04:36:14;;;;;;;;;;;;;;;9.51;70.34;100822.47;7364007;19;19919;-61
2023/11/26 04:38:39;;;;;;;;;;;;;;;9.53;70.28;100823.31;7363284;19;19964;-61
2023/11/26 04:41:05;;;;;;;;;;;;;;;9.54;70.35;100832.84;7337368;19;19941;-61
2023/11/26 04:43:31;;;;;;;;;;;;;;;9.54;70.01;100830.25;7366520;19;19930;-60
2023/11/26 04:45:57;;;;;;;;;;;;;;;9.55;70.33;100831.97;7361514;19;19923;-60
2023/11/26 04:48:22;;;;;;;;;;;;;;;9.55;70.34;100824.13;7366156;19;19929;-61
2023/11/26 04:50:47;;;;;;;;;;;;;;;9.55;70.33;100818.91;7361922;19;20279;-61
2023/11/26 04:53:12;;;;;;;;;;;;;;;9.56;70.04;100818.03;7363851;19;19926;-61
2023/11/26 04:55:38;;;;;;;;;;;;;;;9.56;70.33;100815.41;7357678;19;19958;-60
2023/11/26 04:58:03;;;;;;;;;;;;;;;9.56;70.31;100805.00;7362673;19;19926;-60
2023/11/26 05:00:28;;;;;;;;;;;;;;;9.57;70.29;100805.84;7358047;19;20360;-61
2023/11/26 05:02:54;;;;;;;;;;;;;;;9.57;70.05;100801.50;7365016;19;19945;-60
2023/11/26 05:05:19;;;;;;;;;;;;;;;9.56;70.21;100809.34;7358427;19;20308;-60
2023/11/26 05:07:46;;;;;;;;;;;;;;;9.56;70.07;100802.38;7361921;19;19918;-61
2023/11/26 05:10:11;;;;;;;;;;;;;;;9.55;70.34;100803.28;7364017;19;19918;-61
2023/11/26 05:12:36;;;;;;;;;;;;;;;9.55;70.45;100803.28;7359258;19;19957;-60
2023/11/26 05:15:02;;;;;;;;;;;;;;;9.54;70.06;100796.34;7362199;19;19918;-61
2023/11/26 05:17:27;;;;;;;;;;;;;;;9.54;70.15;100798.97;7364436;19;19930;-61
2023/11/26 05:19:52;;;;;;;;;;;;;;;9.54;70.43;100791.13;7370051;19;19926;-61
2023/11/26 05:22:18;;;;;;;;;;;;;;;9.52;70.27;100790.28;7332916;19;19929;-61
2023/11/26 05:24:43;;;;;;;;;;;;;;;9.53;70.18;100791.13;7370808;19;20608;-61
2023/11/26 05:27:08;;;;;;;;;;;;;;;9.52;70.19;100776.38;7377278;19;19919;-61
2023/11/26 05:29:35;;;;;;;;;;;;;;;9.49;70.05;100782.53;7370450;19;19923;-61
2023/11/26 05:32:00;;;;;;;;;;;;;;;9.49;69.96;100782.53;7367012;19;19911;-61
2023/11/26 05:34:25;;;;;;;;;;;;;;;9.48;70.33;100785.13;7367981;19;19932;-61
2023/11/26 05:36:50;;;;;;;;;;;;;;;9.46;70.21;100787.78;7371178;19;19915;-60
2023/11/26 05:39:16;;;;;;;;;;;;;;;9.45;70.21;100785.22;7368781;19;20807;-60
2023/11/26 05:41:41;;;;;;;;;;;;;;;9.45;70.15;100786.06;7354586;19;20679;-61
2023/11/26 05:44:06;;;;;;;;;;;;;;;9.45;70.40;100780.00;7372637;19;19959;-61
2023/11/26 05:46:32;;;;;;;;;;;;;;;9.43;70.10;100771.31;7366220;19;19918;-60
2023/11/26 05:48:57;;;;;;;;;;;;;;;9.43;70.55;100771.31;7371626;19;20009;-61
2023/11/26 05:51:24;;;;;;;;;;;;;;;9.42;70.21;100760.03;7369903;19;19951;-61
2023/11/26 05:53:49;;;;;;;;;;;;;;;9.41;70.53;100768.75;7373472;19;19930;-61
2023/11/26 05:56:14;;;;;;;;;;;;;;;9.41;70.09;100766.16;7367744;19;19925;-60
2023/11/26 05:58:40;;;;;;;;;;;;;;;9.40;70.60;100764.44;7365680;19;19975;-60
2023/11/26 06:01:05;;;;;;;;;;;;;;;9.41;70.55;100762.69;7366520;19;19915;-61
2023/11/26 06:03:31;;;;;;;;;;;;;;;9.39;70.23;100765.34;7369207;19;19923;-61
2023/11/26 06:05:56;;;;;;;;;;;;;;;9.39;70.15;100767.94;7361191;19;20577;-61
2023/11/26 06:08:21;;;;;;;;;;;;;;;9.38;70.37;100767.94;7368096;19;19958;-61
2023/11/26 06:10:46;;;;;;;;;;;;;;;9.37;70.56;100767.09;7363219;19;19911;-60
2023/11/26 06:13:12;;;;;;;;;;;;;;;9.36;70.51;100766.22;7368959;19;20609;-61
2023/11/26 06:15:38;;;;;;;;;;;;;;;9.37;70.68;100759.25;7365557;19;20803;-60
2023/11/26 06:18:03;;;;;;;;;;;;;;;9.37;70.55;100756.66;7362793;19;19990;-61
2023/11/26 06:20:28;;;;;;;;;;;;;;;9.38;70.58;100753.19;7362123;19;20009;-61
2023/11/26 06:22:54;;;;;;;;;;;;;;;9.37;70.67;100746.22;7365837;19;19986;-61
2023/11/26 06:25:19;;;;;;;;;;;;;;;9.38;70.25;100742.75;7361899;19;19927;-61
2023/11/26 06:27:44;;;;;;;;;;;;;;;9.39;70.17;100736.66;7367480;19;20339;-61
2023/11/26 06:30:10;;;;;;;;;;;;;;;9.41;70.48;100741.84;7359818;19;19925;-61
2023/11/26 06:32:35;;;;;;;;;;;;;;;9.42;70.66;100733.13;7372848;19;19939;-60
2023/11/26 06:35:01;;;;;;;;;;;;;;;9.42;70.21;100731.38;7371242;19;20637;-61
2023/11/26 06:37:26;;;;;;;;;;;;;;;9.44;70.28;100729.63;7369963;19;20784;-61
2023/11/26 06:39:53;;;;;;;;;;;;;;;9.45;70.50;100728.72;7365881;19;19915;-61
2023/11/26 06:42:18;;;;;;;;;;;;;;;9.45;70.26;100728.72;7368253;19;20005;-60
2023/11/26 06:44:44;;;;;;;;;;;;;;;9.45;70.63;100723.50;7365172;19;20002;-61
2023/11/26 06:47:09;;;;;;;;;;;;;;;9.47;70.49;100726.94;7368414;19;19940;-60
2023/11/26 06:49:34;;;;;;;;;;;;;;;9.46;70.59;100725.22;7370701;19;19926;-61
2023/11/26 06:52:00;;;;;;;;;;;;;;;9.46;70.60;100720.00;7362641;19;19936;-61
2023/11/26 06:54:25;;;;;;;;;;;;;;;9.45;70.21;100712.22;7365133;19;19911;-60
2023/11/26 06:56:50;;;;;;;;;;;;;;;9.43;70.23;100717.47;7366144;19;19947;-60
2023/11/26 06:59:16;;;;;;;;;;;;;;;9.37;70.18;100704.53;7361765;19;21089;-61
2023/11/26 07:01:41;;;;;;;;;;;;;;;9.39;70.47;100710.59;7368886;19;19940;-61
2023/11/26 07:04:06;;;;;;;;;;;;;;;9.36;70.19;100705.44;7368476;19;19910;-60
2023/11/26 07:06:32;;;;;;;;;;;;;;;9.32;70.55;100701.16;7363412;19;20291;-61
2023/11/26 07:08:57;;;;;;;;;;;;;;;9.28;70.32;100707.31;7368484;19;20459;-61
2023/11/26 07:11:23;;;;;;;;;;;;;;;9.24;70.41;100703.03;7362660;19;19915;-61
2023/11/26 07:13:50;;;;;;;;;;;;;;;9.20;70.47;100696.16;7370484;19;19918;-61
2023/11/26 07:16:16;;;;;;;;;;;;;;;9.14;70.12;100696.28;7373305;19;19911;-61
2023/11/26 07:18:42;;;;;;;;;;;;;;;9.10;70.26;100695.47;7368414;19;19918;-60
2023/11/26 07:21:07;;;;;;;;;;;;;;;9.04;70.23;100696.41;7365726;19;19938;-60
2023/11/26 07:23:32;;;;;;;;;;;;;;;8.98;70.23;100696.53;7369749;19;19923;-60
2023/11/26 07:25:58;;;;;;;;;;;;;;;8.92;70.56;100694.03;7360909;19;19927;-61
2023/11/26 07:28:24;;;;;;;;;;;;;;;8.88;70.61;100699.31;7362267;19;20369;-61
2023/11/26 07:30:50;;;;;;;;;;;;;;;8.82;70.40;100700.25;7370707;19;20551;-61
2023/11/26 07:33:15;;;;;;;;;;;;;;;8.77;70.74;100697.72;7368124;19;19919;-61
2023/11/26 07:35:41;;;;;;;;;;;;;;;8.73;70.62;100703.00;7360080;19;19976;-61
2023/11/26 07:38:08;;;;;;;;;;;;;;;8.70;70.54;100695.22;7362851;19;19933;-61
2023/11/26 07:40:33;;;;;;;;;;;;;;;8.68;70.95;100697.00;7362133;19;19929;-61
2023/11/26 07:42:59;;;;;;;;;;;;;;;8.65;70.98;100692.69;7359080;19;19927;-60
2023/11/26 07:45:24;;;;;;;;;;;;;;;8.64;71.09;100690.13;7366858;19;19947;-60
2023/11/26 07:47:50;;;;;;;;;;;;;;;8.63;70.73;100686.66;7363009;19;19922;-60
2023/11/26 07:50:15;;;;;;;;;;;;;;;8.63;71.23;100675.38;7364960;19;20310;-61
2023/11/26 07:52:40;;;;;;;;;;;;;;;8.64;71.18;100672.75;7361114;19;19973;-61
2023/11/26 07:55:06;;;;;;;;;;;;;;;8.65;71.05;100671.00;7363411;19;19918;-61
2023/11/26 07:57:31;;;;;;;;;;;;;;;8.67;71.17;100674.44;7369061;19;20010;-61
2023/11/26 07:59:58;;;;;;;;;;;;;;;8.68;70.98;100681.38;7366495;19;19911;-61
2023/11/26 08:02:23;;;;;;;;;;;;;;;8.71;71.18;100681.31;7363413;19;19926;-60
2023/11/26 08:04:51;;;;;;;;;;;;;;;8.74;71.15;100681.28;7361832;19;19923;-61
2023/11/26 08:07:17;;;;;;;;;;;;;;;8.77;71.41;100678.66;7363373;19;20334;-61
2023/11/26 08:09:42;;;;;;;;;;;;;;;8.79;71.60;100674.25;7355886;19;19921;-60
2023/11/26 08:12:13;;;;;;;;;;;;;;;8.81;71.37;100667.28;7363652;19;19926;-61
2023/11/26 08:14:38;;;;;;;;;;;;;;;8.84;71.27;100669.84;7358403;19;19922;-60
2023/11/26 08:17:05;;;;;;;;;;;;;;;8.88;71.13;100668.91;7368631;19;19923;-60
2023/11/26 08:19:31;;;;;;;;;;;;;;;8.90;71.05;100668.88;7364329;19;20558;-61
2023/11/26 08:21:56;;;;;;;;;;;;;;;8.93;71.15;100661.88;7367085;19;19927;-61
2023/11/26 08:24:23;;;;;;;;;;;;;;;8.96;71.37;100669.63;7367558;19;20264;-61
2023/11/26 08:26:51;;;;;;;;;;;;;;;8.99;71.31;100661.78;7370808;19;19925;-61
2023/11/26 08:29:18;;;;;;;;;;;;;;;9.02;71.37;100659.13;7360989;19;19919;-61
2023/11/26 08:31:44;;;;;;;;;;;;;;;9.04;71.16;100654.75;7365003;19;20391;-60
2023/11/26 08:34:10;;;;;;;;;;;;;;;9.08;71.59;100656.41;7354131;19;20303;-60
2023/11/26 08:36:41;;;;;;;;;;;;;;;9.12;71.51;100657.19;7361211;19;19919;-61
2023/11/26 08:39:12;;;;;;;;;;;;;;;9.18;71.43;100656.25;7362871;19;19926;-60
2023/11/26 08:41:38;;;;;;;;;;;;;;;9.22;71.45;100652.69;7359951;19;19929;-61
2023/11/26 08:44:03;;;;;;;;;;;;;;;9.27;71.59;100661.28;7361957;19;20313;-61
2023/11/26 08:46:29;;;;;;;;;;;;;;;9.31;71.23;100652.53;7362429;19;20008;-60
2023/11/26 08:48:54;;;;;;;;;;;;;;;9.35;71.37;100656.81;7363167;19;19922;-60
2023/11/26 08:51:19;;;;;;;;;;;;;;;9.40;71.18;100652.38;7356685;19;20705;-60
2023/11/26 08:53:45;;;;;;;;;;;;;;;9.44;71.63;100651.44;7358211;19;19927;-60
2023/11/26 08:56:11;;;;;;;;;;;;;;;9.49;71.12;100646.13;7360949;19;20329;-60
2023/11/26 08:58:36;;;;;;;;;;;;;;;9.55;71.66;100646.00;7363627;19;19919;-61
2023/11/26 09:01:02;;;;;;;;;;;;;;;9.60;71.16;100639.81;7359700;19;19922;-61
2023/11/26 09:03:27;;;;;;;;;;;;;;;9.66;71.62;100648.41;7358467;19;19941;-61
2023/11/26 09:05:52;;;;;;;;;;;;;;;9.71;71.32;100646.56;7359720;19;19935;-61
2023/11/26 09:08:18;;;;;;;;;;;;;;;9.77;71.32;100646.44;7364930;19;19960;-61
2023/11/26 09:10:43;;;;;;;;;;;;;;;9.82;71.48;100644.59;7358441;19;19926;-61
2023/11/26 09:13:08;;;;;;;;;;;;;;;9.88;71.11;100639.25;7365496;19;19938;-61
2023/11/26 09:15:36;;;;;;;;;;;;;;;9.92;71.32;100640.91;7357434;19;20003;-61
2023/11/26 09:18:04;;;;;;;;;;;;;;;9.98;71.50;100635.53;7358577;19;20351;-61
2023/11/26 09:20:29;;;;;;;;;;;;;;;10.04;71.10;100639.81;7351844;19;19919;-61
2023/11/26 09:22:54;;;;;;;;;;;;;;;10.07;71.50;100630.13;7361273;19;19930;-60
2023/11/26 09:25:19;;;;;;;;;;;;;;;10.12;71.42;100628.28;7358571;19;19919;-60
2023/11/26 09:27:45;;;;;;;;;;;;;;;10.17;71.33;100622.09;7368961;19;20758;-61
2023/11/26 09:30:10;;;;;;;;;;;;;;;10.22;71.00;100621.13;7362406;19;19927;-60
2023/11/26 09:32:37;;;;;;;;;;;;;;;10.25;71.34;100618.47;7340491;19;19975;-61
2023/11/26 09:35:02;;;;;;;;;;;;;;;10.30;71.55;100614.00;7357951;19;19930;-61
2023/11/26 09:37:29;;;;;;;;;;;;;;;10.33;71.22;100610.47;7361883;19;19915;-60
2023/11/26 09:39:55;;;;;;;;;;;;;;;10.40;71.22;100612.06;7361962;19;19927;-61
2023/11/26 09:42:21;;;;;;;;;;;;;;;10.44;71.41;100611.09;7360610;19;20024;-61
2023/11/26 09:44:47;;;;;;;;;;;;;;;10.49;71.48;100617.06;7356185;19;19933;-61
2023/11/26 09:47:14;;;;;;;;;;;;;;;10.53;71.04;100603.00;7359892;19;19926;-60
2023/11/26 09:49:40;;;;;;;;;;;;;;;10.57;71.51;100599.44;7359155;19;19922;-60
2023/11/26 09:52:05;;;;;;;;;;;;;;;10.62;71.11;100599.34;7346028;19;19918;-61
2023/11/26 09:54:31;;;;;;;;;;;;;;;10.65;71.17;100602.72;7358800;19;19926;-61
2023/11/26 09:56:59;;;;;;;;;;;;;;;10.70;71.11;100601.78;7351100;19;19918;-61
2023/11/26 09:59:25;;;;;;;;;;;;;;;10.75;71.23;100592.91;7355688;19;20419;-60
2023/11/26 10:01:50;;;;;;;;;;;;;;;10.77;71.04;100591.13;7355224;19;19922;-61
2023/11/26 10:04:16;;;;;;;;;;;;;;;10.82;71.05;100598.84;7358157;19;20361;-61
2023/11/26 10:06:41;;;;;;;;;;;;;;;10.86;71.25;100600.47;7365057;19;20614;-61
2023/11/26 10:09:19;;;;;;;;;;;;;;;10.89;71.20;100595.16;7365448;19;19933;-61
2023/11/26 10:11:45;;;;;;;;;;;;;;;10.93;71.19;100593.34;7367295;19;20711;-61
2023/11/26 10:14:18;;;;;;;;;;;;;;;10.96;71.37;100601.97;7359088;19;19919;-60
2023/11/26 10:16:43;;;;;;;;;;;;;;;11.01;71.17;100592.25;7367526;19;20820;-61
2023/11/26 10:19:23;;;;;;;;;;;;;;;11.04;71.22;100584.31;7362199;19;19978;-60
2023/11/26 10:21:53;;;;;;;;;;;;;;;11.09;71.14;100586.81;7372066;19;19922;-61
2023/11/26 10:24:18;;;;;;;;;;;;;;;11.12;71.21;100590.19;7357644;19;19918;-61
2023/11/26 10:26:44;;;;;;;;;;;;;;;11.17;70.97;100590.94;7358480;19;19918;-61
2023/11/26 10:29:12;;;;;;;;;;;;;;;11.22;71.02;100588.19;7355283;19;19923;-60
2023/11/26 10:31:37;;;;;;;;;;;;;;;11.26;71.28;100583.75;7366184;19;19922;-61
2023/11/26 10:34:13;;;;;;;;;;;;;;;11.30;71.22;100586.22;7362201;19;19923;-60
2023/11/26 10:36:38;;;;;;;;;;;;;;;11.34;70.97;100576.53;7366688;19;20365;-61
2023/11/26 10:39:09;;;;;;;;;;;;;;;11.38;71.11;100586.03;7358140;19;19906;-61
2023/11/26 10:41:35;;;;;;;;;;;;;;;11.43;71.42;100581.53;7366985;19;19922;-60
2023/11/26 10:44:00;;;;;;;;;;;;;;;11.47;71.04;100580.53;7366824;19;19922;-60
2023/11/26 10:46:26;;;;;;;;;;;;;;;11.52;71.08;100580.41;7368348;19;19929;-61
2023/11/26 10:48:58;;;;;;;;;;;;;;;11.55;71.41;100575.94;7365705;19;19931;-61
2023/11/26 10:51:26;;;;;;;;;;;;;;;11.54;71.37;100563.75;7357733;19;19982;-61
2023/11/26 10:54:03;;;;;;;;;;;;;;;11.63;70.99;100568.72;7365015;19;20250;-61
2023/11/26 10:56:37;;;;;;;;;;;;;;;11.67;70.94;100565.13;7355296;19;19955;-61
2023/11/26 10:59:05;;;;;;;;;;;;;;;11.71;70.99;100563.28;7364722;19;19926;-61
2023/11/26 11:01:30;;;;;;;;;;;;;;;11.75;71.32;100550.94;7363440;19;19986;-60
2023/11/26 11:03:57;;;;;;;;;;;;;;;11.80;71.00;100554.28;7365827;19;19982;-61
2023/11/26 11:06:23;;;;;;;;;;;;;;;11.84;71.13;100553.34;7364756;19;19955;-61
2023/11/26 11:08:49;;;;;;;;;;;;;;;11.88;70.86;100547.09;7356781;19;19918;-61
2023/11/26 11:11:14;;;;;;;;;;;;;;;11.91;70.98;100539.16;7361378;19;19923;-61
2023/11/26 11:13:40;;;;;;;;;;;;;;;11.95;70.87;100535.53;7361880;19;20283;-61
2023/11/26 11:16:06;;;;;;;;;;;;;;;11.99;71.02;100534.53;7360288;19;20567;-61
2023/11/26 11:18:38;;;;;;;;;;;;;;;12.03;71.17;100535.31;7360641;19;20430;-61
2023/11/26 11:21:10;;;;;;;;;;;;;;;12.07;71.35;100522.09;7361365;19;19926;-61
2023/11/26 11:23:37;;;;;;;;;;;;;;;12.13;71.09;100521.88;7364245;19;20742;-61
2023/11/26 11:26:02;;;;;;;;;;;;;;;12.19;71.25;100516.44;7358791;19;20013;-61
2023/11/26 11:28:43;;;;;;;;;;;;;;;12.26;71.19;100508.38;7364346;19;20010;-61
2023/11/26 11:31:21;;;;;;;;;;;;;;;12.36;71.57;100512.41;7365907;19;19925;-61
2023/11/26 11:34:02;;;;;;;;;;;;;;;12.44;71.47;100506.03;7362992;19;19919;-61
2023/11/26 11:36:50;;;;;;;;;;;;;;;12.51;71.13;100503.19;7357294;19;19918;-61
2023/11/26 11:39:17;;;;;;;;;;;;;;;12.57;71.20;100490.75;7360437;19;19930;-61
2023/11/26 11:41:58;;;;;;;;;;;;;;;12.63;71.15;100489.69;7355729;19;19923;-60
2023/11/26 11:44:28;;;;;;;;;;;;;;;12.67;70.86;100489.53;7330453;19;20369;-61
2023/11/26 11:46:57;;;;;;;;;;;;;;;12.70;70.94;100481.56;7364255;19;20342;-60
2023/11/26 11:49:22;;;;;;;;;;;;;;;12.73;70.71;100476.22;7359299;19;19926;-60
2023/11/26 11:51:47;;;;;;;;;;;;;;;12.75;70.61;100462.19;7362402;19;19947;-61
2023/11/26 11:54:16;;;;;;;;;;;;;;;12.78;70.87;100472.59;7358470;19;19949;-60
2023/11/26 11:56:42;;;;;;;;;;;;;;;12.79;70.49;100458.56;7362851;19;20247;-61
2023/11/26 11:59:08;;;;;;;;;;;;;;;12.81;70.47;100461.97;7358686;19;19918;-60
2023/11/26 12:01:37;;;;;;;;;;;;;;;12.83;70.75;100457.56;7364164;19;19926;-61
2023/11/26 12:04:02;;;;;;;;;;;;;;;12.86;70.42;100457.44;7360765;19;19959;-60
2023/11/26 12:06:28;;;;;;;;;;;;;;;12.88;70.49;100453.00;7366193;19;20335;-60
2023/11/26 12:08:54;;;;;;;;;;;;;;;12.90;70.85;100451.16;7363285;19;19926;-60
2023/11/26 12:11:20;;;;;;;;;;;;;;;12.92;70.34;100446.72;7361619;19;19915;-61
2023/11/26 12:13:45;;;;;;;;;;;;;;;12.93;70.79;100441.44;7361517;19;20020;-61
2023/11/26 12:16:11;;;;;;;;;;;;;;;12.95;70.55;100434.38;7360810;19;19925;-61
2023/11/26 12:18:36;;;;;;;;;;;;;;;12.96;70.47;100435.22;7361567;19;19914;-60
2023/11/26 12:21:03;;;;;;;;;;;;;;;12.97;70.38;100431.69;7366970;19;20255;-61
2023/11/26 12:23:32;;;;;;;;;;;;;;;12.99;70.61;100427.25;7361264;19;20350;-61
2023/11/26 12:25:58;;;;;;;;;;;;;;;12.99;70.63;100428.09;7360792;19;19941;-61
2023/11/26 12:28:24;;;;;;;;;;;;;;;13.01;70.34;100428.03;7362130;19;19962;-61
2023/11/26 12:30:56;;;;;;;;;;;;;;;13.02;70.61;100427.13;7358853;19;20637;-61
2023/11/26 12:33:21;;;;;;;;;;;;;;;13.03;70.37;100426.22;7363335;19;19964;-60
2023/11/26 12:35:48;;;;;;;;;;;;;;;13.04;70.36;100422.69;7361820;19;19926;-61
2023/11/26 12:38:14;;;;;;;;;;;;;;;13.05;70.31;100419.16;7355489;19;20713;-61
2023/11/26 12:40:39;;;;;;;;;;;;;;;13.06;70.69;100409.53;7362766;19;20264;-61